Time;durP1;ratioP1;P1;durP2;ratioP2;P2;SDS_P1;SDS_P2;PMS_P1;PMS_P2;Temp;Humidity;BMP_temperature;BMP_pressure;BME280_temperature;BME280_humidity;BME280_pressure;Samples;Min_cycle;Max_cycle;Signal;HPM_P1;HPM_P2
2022/08/13 00:02:10;;;;;;;0.40;0.40;;;23.10;61.40;;;;;;4955835;29;20031;-67
2022/08/13 00:04:39;;;;;;;0.65;0.30;;;23.00;61.60;;;;;;4940474;29;20118;-68
2022/08/13 00:07:07;;;;;;;0.43;0.22;;;22.90;61.80;;;;;;4938682;29;20400;-67
2022/08/13 00:09:38;;;;;;;0.93;0.77;;;22.90;61.80;;;;;;4955347;28;20130;-68
2022/08/13 00:14:55;;;;;;;0.10;0.10;;;22.70;62.60;;;;;;4941852;29;20571;-68
2022/08/13 00:17:21;;;;;;;0.10;0.10;;;22.70;62.80;;;;;;4954504;28;20563;-67
2022/08/13 00:19:50;;;;;;;0.00;0.00;;;22.70;62.80;;;;;;4955360;28;20027;-67
2022/08/13 00:22:19;;;;;;;0.00;0.00;;;22.70;62.90;;;;;;4955709;29;20035;-68
2022/08/13 00:24:46;;;;;;;0.00;0.00;;;22.70;62.80;;;;;;4955493;29;20035;-67
2022/08/13 00:27:12;;;;;;;0.10;0.08;;;22.70;62.90;;;;;;4938965;29;20054;-67
2022/08/13 00:29:39;;;;;;;0.10;0.10;;;22.60;62.80;;;;;;4937935;29;20031;-68
2022/08/13 00:32:05;;;;;;;0.00;0.00;;;22.60;63.00;;;;;;4937853;29;20542;-67
2022/08/13 00:34:31;;;;;;;0.00;0.00;;;22.50;62.80;;;;;;4955496;29;20059;-67
2022/08/13 00:36:56;;;;;;;0.00;0.00;;;22.60;62.90;;;;;;4938305;29;20077;-68
2022/08/13 00:39:22;;;;;;;0.00;0.00;;;22.50;63.00;;;;;;4955102;28;20119;-67
2022/08/13 00:41:48;;;;;;;0.08;0.08;;;22.50;63.20;;;;;;4955433;29;20034;-67
2022/08/13 00:44:17;;;;;;;0.00;0.00;;;22.40;63.30;;;;;;4937897;29;20031;-67
2022/08/13 00:46:44;;;;;;;0.40;0.22;;;22.50;63.70;;;;;;4955279;29;20534;-68
2022/08/13 00:49:12;;;;;;;0.22;0.20;;;22.50;63.50;;;;;;4955112;28;20043;-67
2022/08/13 00:51:41;;;;;;;0.00;0.00;;;22.50;63.50;;;;;;4922422;29;20139;-67
2022/08/13 00:54:17;;;;;;;0.00;0.00;;;22.50;63.40;;;;;;4954571;29;20568;-67
2022/08/13 00:56:43;;;;;;;0.08;0.08;;;22.70;63.10;;;;;;4955389;29;20403;-67
2022/08/13 00:59:13;;;;;;;0.00;0.00;;;22.80;63.00;;;;;;4954468;28;20033;-65
2022/08/13 01:01:41;;;;;;;;;;;22.90;62.70;;;;;;4955189;29;20028;-66
2022/08/13 01:04:07;;;;;;;0.15;0.15;;;22.90;62.60;;;;;;4952346;29;19911;-66
2022/08/13 01:06:35;;;;;;;0.22;0.10;;;22.80;62.80;;;;;;4950838;29;20959;-66
2022/08/13 01:09:04;;;;;;;0.00;0.00;;;22.80;62.90;;;;;;4936847;29;20027;-66
2022/08/13 01:11:32;;;;;;;0.00;0.00;;;22.80;63.00;;;;;;4954501;29;20035;-66
2022/08/13 01:14:07;;;;;;;0.57;0.25;;;22.80;63.00;;;;;;4954476;29;20086;-66
2022/08/13 01:16:36;;;;;;;0.00;0.00;;;22.90;62.90;;;;;;4954759;29;20108;-66
2022/08/13 01:19:09;;;;;;;0.43;0.35;;;23.00;63.00;;;;;;4954058;28;20078;-65
2022/08/13 01:21:40;;;;;;;0.00;0.00;;;23.00;62.70;;;;;;4954532;29;20027;-66
2022/08/13 01:24:09;;;;;;;0.00;0.00;;;23.00;62.70;;;;;;4954208;29;20023;-66
2022/08/13 01:26:37;;;;;;;0.35;0.32;;;23.00;62.80;;;;;;4954927;29;20019;-65
2022/08/13 01:29:05;;;;;;;0.30;0.22;;;22.80;63.00;;;;;;4954372;28;20484;-66
2022/08/13 01:31:32;;;;;;;0.00;0.00;;;22.80;63.20;;;;;;4937234;29;20035;-66
2022/08/13 01:34:00;;;;;;;0.10;0.10;;;22.90;63.20;;;;;;4953829;29;20023;-66
2022/08/13 01:36:30;;;;;;;0.00;0.00;;;22.80;63.30;;;;;;4937314;29;20037;-66
2022/08/13 01:39:04;;;;;;;0.25;0.15;;;22.80;63.20;;;;;;4954183;28;20025;-66
2022/08/13 01:41:31;;;;;;;0.10;0.10;;;22.90;63.10;;;;;;4938283;29;20520;-66
2022/08/13 01:44:06;;;;;;;0.22;0.20;;;22.60;63.40;;;;;;4936561;29;20117;-66
2022/08/13 01:52:09;;;;;;;0.00;0.00;;;22.40;63.90;;;;;;4939283;29;20027;-66
2022/08/13 01:54:37;;;;;;;0.20;0.10;;;22.30;64.40;;;;;;4936530;29;20480;-66
2022/08/13 01:57:06;;;;;;;0.00;0.00;;;22.30;64.50;;;;;;4936920;29;20514;-66
2022/08/13 01:59:36;;;;;;;0.00;0.00;;;22.10;64.90;;;;;;4936207;29;20031;-66
2022/08/13 02:02:04;;;;;;;0.00;0.00;;;22.10;65.00;;;;;;4936654;29;20102;-66
2022/08/13 02:04:32;;;;;;;0.10;0.10;;;22.20;64.90;;;;;;4936645;29;20407;-66
2022/08/13 02:07:00;;;;;;;2.75;1.38;;;22.20;65.00;;;;;;4953366;29;20086;-66
2022/08/13 02:09:26;;;;;;;0.00;0.00;;;22.20;64.80;;;;;;4936328;29;20070;-66
2022/08/13 02:11:52;;;;;;;0.10;0.10;;;22.10;65.20;;;;;;4953867;29;20404;-66
2022/08/13 02:14:21;;;;;;;0.60;0.57;;;21.90;65.40;;;;;;4953278;29;20037;-66
2022/08/13 02:16:47;;;;;;;1.30;0.55;;;21.80;65.70;;;;;;4936270;29;20041;-66
2022/08/13 02:19:13;;;;;;;0.22;0.08;;;21.60;66.20;;;;;;4935819;29;20027;-66
2022/08/13 02:21:42;;;;;;;0.08;0.00;;;21.50;66.50;;;;;;4936359;29;20034;-66
2022/08/13 02:24:14;;;;;;;0.05;0.05;;;21.50;66.60;;;;;;4936135;29;20031;-66
2022/08/13 02:26:45;;;;;;;0.55;0.50;;;21.30;67.30;;;;;;4953655;29;20558;-66
2022/08/13 02:29:12;;;;;;;0.05;0.05;;;21.20;67.70;;;;;;4953150;28;20476;-66
2022/08/13 02:31:42;;;;;;;0.13;0.08;;;20.90;68.50;;;;;;4936460;29;20471;-66
2022/08/13 02:34:10;;;;;;;0.00;0.00;;;20.90;68.70;;;;;;4936171;29;20034;-66
2022/08/13 02:36:37;;;;;;;0.10;0.10;;;20.80;68.90;;;;;;4936754;29;20066;-66
2022/08/13 02:39:05;;;;;;;0.00;0.00;;;20.60;68.80;;;;;;4935539;29;20031;-66
2022/08/13 02:41:43;;;;;;;0.10;0.10;;;20.70;69.00;;;;;;4935956;29;20028;-66
2022/08/13 02:44:16;;;;;;;1.90;0.68;;;20.80;68.70;;;;;;4952902;29;20042;-66
2022/08/13 02:46:49;;;;;;;0.00;0.00;;;20.40;69.40;;;;;;4936361;29;20431;-66
2022/08/13 02:49:15;;;;;;;0.30;0.30;;;20.10;70.10;;;;;;4935914;29;20023;-66
2022/08/13 02:51:42;;;;;;;0.00;0.00;;;20.10;70.40;;;;;;4953202;29;20031;-66
2022/08/13 02:54:09;;;;;;;0.10;0.10;;;20.10;70.40;;;;;;4952745;29;20058;-66
2022/08/13 02:56:36;;;;;;;0.85;0.70;;;20.20;70.50;;;;;;4920515;29;20032;-66
2022/08/13 02:59:08;;;;;;;0.10;0.10;;;20.20;70.30;;;;;;4935199;29;20031;-65
2022/08/13 03:01:35;;;;;;;0.17;0.17;;;20.20;70.30;;;;;;4952821;29;20031;-66
2022/08/13 03:04:01;;;;;;;0.00;0.00;;;20.20;70.40;;;;;;4948947;29;20588;-66
2022/08/13 03:06:27;;;;;;;0.00;0.00;;;20.30;70.30;;;;;;4952582;29;20076;-66
2022/08/13 03:08:53;;;;;;;0.13;0.10;;;20.30;70.20;;;;;;4952462;28;20039;-66
2022/08/13 03:11:20;;;;;;;0.00;0.00;;;20.40;70.00;;;;;;4952910;29;20749;-66
2022/08/13 03:13:58;;;;;;;0.00;0.00;;;20.40;69.90;;;;;;4952675;29;20495;-66
2022/08/13 03:16:26;;;;;;;0.00;0.00;;;20.50;69.90;;;;;;4935823;29;20074;-66
2022/08/13 03:18:54;;;;;;;0.45;0.45;;;20.60;69.80;;;;;;4952562;28;20035;-65
2022/08/13 03:21:32;;;;;;;0.20;0.20;;;20.70;69.70;;;;;;4952868;29;20504;-66
2022/08/13 03:23:59;;;;;;;0.10;0.10;;;20.80;69.40;;;;;;4935935;29;20044;-66
2022/08/13 03:26:25;;;;;;;0.00;0.00;;;20.80;69.30;;;;;;4952547;29;20042;-65
2022/08/13 03:28:51;;;;;;;0.15;0.10;;;20.80;69.20;;;;;;4952226;28;20392;-66
2022/08/13 03:31:21;;;;;;;3.75;1.17;;;20.70;69.30;;;;;;4935663;29;20043;-66
2022/08/13 03:33:47;;;;;;;0.00;0.00;;;20.70;69.60;;;;;;4935133;29;20523;-66
2022/08/13 03:36:14;;;;;;;0.00;0.00;;;20.70;69.60;;;;;;4952573;29;20054;-65
2022/08/13 03:38:40;;;;;;;0.03;0.03;;;20.70;69.40;;;;;;4952612;28;20109;-66
2022/08/13 03:41:14;;;;;;;0.00;0.00;;;20.80;69.30;;;;;;4919868;29;20278;-66
2022/08/13 03:43:42;;;;;;;0.85;0.40;;;20.70;69.30;;;;;;4951988;29;20034;-66
2022/08/13 03:46:18;;;;;;;0.25;0.10;;;20.60;69.70;;;;;;4951691;29;20031;-66
2022/08/13 03:48:47;;;;;;;0.20;0.10;;;20.40;70.20;;;;;;4935142;29;20045;-66
2022/08/13 03:51:14;;;;;;;0.30;0.30;;;20.30;70.50;;;;;;4952549;28;20039;-66
2022/08/13 03:53:41;;;;;;;2.65;0.50;;;20.00;71.10;;;;;;4938648;29;20483;-66
2022/08/13 03:56:08;;;;;;;0.43;0.30;;;20.00;71.40;;;;;;4938691;29;20040;-66
2022/08/13 03:58:34;;;;;;;0.10;0.10;;;20.00;71.60;;;;;;4938778;29;20038;-66
2022/08/13 04:01:02;;;;;;;0.43;0.28;;;20.10;71.50;;;;;;4938813;29;20027;-66
2022/08/13 04:03:46;;;;;;;0.00;0.00;;;20.20;71.20;;;;;;4955633;29;20041;-66
2022/08/13 04:06:20;;;;;;;1.23;0.50;;;20.30;71.00;;;;;;4956105;29;20118;-66
2022/08/13 04:08:48;;;;;;;0.25;0.25;;;20.30;70.90;;;;;;4939178;29;20041;-66
2022/08/13 04:11:21;;;;;;;0.00;0.00;;;20.30;70.90;;;;;;4955796;29;20065;-66
2022/08/13 04:13:48;;;;;;;0.10;0.10;;;20.20;71.10;;;;;;4955105;29;20039;-66
2022/08/13 04:16:16;;;;;;;0.55;0.47;;;20.10;71.20;;;;;;4955845;29;20031;-66
2022/08/13 04:18:44;;;;;;;0.03;0.03;;;20.10;71.40;;;;;;4922699;29;20031;-66
2022/08/13 04:21:14;;;;;;;7.72;0.32;;;20.10;71.40;;;;;;4955464;29;20039;-66
2022/08/13 04:23:43;;;;;;;0.03;0.03;;;20.10;71.30;;;;;;4938197;29;20019;-66
2022/08/13 04:26:16;;;;;;;0.22;0.15;;;20.10;71.40;;;;;;4938457;29;20039;-66
2022/08/13 04:28:45;;;;;;;0.03;0.03;;;20.10;71.50;;;;;;4937814;29;20035;-66
2022/08/13 04:31:11;;;;;;;0.00;0.00;;;20.10;71.60;;;;;;4919398;29;20063;-66
2022/08/13 04:33:39;;;;;;;0.00;0.00;;;20.10;71.60;;;;;;4936024;29;20036;-66
2022/08/13 04:36:13;;;;;;;1.08;0.35;;;20.20;71.50;;;;;;4919027;29;20039;-68
2022/08/13 04:38:39;;;;;;;0.08;0.08;;;20.30;71.30;;;;;;4920137;29;20031;-67
2022/08/13 04:41:05;;;;;;;0.32;0.32;;;20.40;71.10;;;;;;4918514;29;20036;-67
2022/08/13 04:43:31;;;;;;;0.00;0.00;;;20.50;70.80;;;;;;4935704;29;20032;-67
2022/08/13 04:45:58;;;;;;;0.00;0.00;;;20.60;70.60;;;;;;4918831;29;20036;-67
2022/08/13 04:48:28;;;;;;;0.10;0.10;;;20.60;70.50;;;;;;4936010;29;20508;-67
2022/08/13 04:50:54;;;;;;;0.10;0.10;;;20.50;70.70;;;;;;4918617;29;20035;-67
2022/08/13 04:53:30;;;;;;;0.00;0.00;;;20.30;71.00;;;;;;4935387;29;20031;-67
2022/08/13 04:55:57;;;;;;;0.00;0.00;;;20.10;71.50;;;;;;4935694;29;20027;-67
2022/08/13 04:58:29;;;;;;;0.15;0.15;;;20.00;71.80;;;;;;4920439;29;20167;-67
2022/08/13 05:00:56;;;;;;;0.10;0.10;;;20.00;72.30;;;;;;4937321;29;20035;-67
2022/08/13 05:03:22;;;;;;;0.88;0.30;;;20.00;72.60;;;;;;4936764;29;20118;-67
2022/08/13 05:05:51;;;;;;;0.00;0.00;;;19.90;72.80;;;;;;4937390;29;20159;-67
2022/08/13 05:08:18;;;;;;;0.10;0.10;;;19.90;73.00;;;;;;4937565;28;20118;-67
2022/08/13 05:10:48;;;;;;;0.40;0.20;;;20.00;73.10;;;;;;4954786;29;20028;-67
2022/08/13 05:13:25;;;;;;;0.13;0.13;;;20.10;73.20;;;;;;4937237;29;20511;-67
2022/08/13 05:15:54;;;;;;;0.00;0.00;;;20.10;73.10;;;;;;4954287;29;20035;-67
2022/08/13 05:18:21;;;;;;;0.05;0.05;;;20.20;73.00;;;;;;4937488;28;20038;-67
2022/08/13 05:20:47;;;;;;;1.08;0.77;;;20.30;72.80;;;;;;4936813;29;20027;-68
2022/08/13 05:23:16;;;;;;;0.10;0.10;;;20.40;72.30;;;;;;4953766;29;20456;-67
2022/08/13 05:25:42;;;;;;;0.10;0.10;;;20.50;72.00;;;;;;4921638;29;20042;-67
2022/08/13 05:28:08;;;;;;;0.00;0.00;;;20.50;72.10;;;;;;4953977;28;20027;-67
2022/08/13 05:30:38;;;;;;;0.15;0.08;;;20.50;72.00;;;;;;4936965;29;20047;-67
2022/08/13 05:33:22;;;;;;;0.15;0.15;;;20.60;71.80;;;;;;4953789;29;20028;-67
2022/08/13 05:35:59;;;;;;;0.13;0.13;;;20.60;71.80;;;;;;4887215;29;20522;-67
2022/08/13 05:38:27;;;;;;;8.80;1.25;;;20.60;71.90;;;;;;4936257;29;20079;-67
2022/08/13 05:40:58;;;;;;;0.10;0.10;;;20.70;71.60;;;;;;4953781;29;20479;-72
2022/08/13 05:43:28;;;;;;;0.13;0.05;;;20.80;71.50;;;;;;4953322;29;20031;-71
2022/08/13 05:46:02;;;;;;;0.43;0.43;;;20.80;71.60;;;;;;4953930;29;20119;-71
2022/08/13 05:48:56;;;;;;;0.00;0.00;;;20.80;71.70;;;;;;4936984;29;20587;-76
2022/08/13 05:51:31;;;;;;;0.25;0.25;;;20.80;71.90;;;;;;4938269;29;20031;-77
2022/08/13 05:54:01;;;;;;;0.03;0.03;;;20.80;72.00;;;;;;4953035;29;20031;-77
2022/08/13 05:56:36;;;;;;;0.00;0.00;;;20.70;72.20;;;;;;4920778;29;20495;-78
2022/08/13 05:59:04;;;;;;;0.00;0.00;;;20.80;72.30;;;;;;4963837;28;20042;-78
2022/08/13 06:04:16;;;;;;;0.00;0.00;;;20.70;72.30;;;;;;4951249;29;20399;-79
2022/08/13 06:06:42;;;;;;;0.00;0.00;;;20.80;72.00;;;;;;4935947;29;20066;-79
2022/08/13 06:09:08;;;;;;;0.20;0.20;;;20.90;72.10;;;;;;4935468;29;20059;-79
2022/08/13 06:11:36;;;;;;;0.00;0.00;;;21.00;72.00;;;;;;4936171;29;20751;-76
2022/08/13 06:14:02;;;;;;;0.20;0.10;;;21.00;72.30;;;;;;4919476;29;20476;-76
2022/08/13 06:16:28;;;;;;;0.10;0.10;;;21.10;71.80;;;;;;4953040;29;20087;-76
2022/08/13 06:18:58;;;;;;;0.10;0.10;;;21.20;71.50;;;;;;4935731;29;20088;-78
2022/08/13 06:21:25;;;;;;;0.00;0.00;;;21.20;71.10;;;;;;4936022;29;20034;-78
2022/08/13 06:23:54;;;;;;;0.10;0.10;;;21.30;71.40;;;;;;4935305;29;20042;-78
2022/08/13 06:26:23;;;;;;;0.00;0.00;;;21.50;70.90;;;;;;4952806;29;20046;-79
2022/08/13 06:28:51;;;;;;;0.10;0.03;;;21.60;70.90;;;;;;4935916;29;20035;-76
2022/08/13 06:31:27;;;;;;;0.22;0.22;;;21.70;70.40;;;;;;4953011;29;20054;-75
2022/08/13 06:33:56;;;;;;;0.10;0.10;;;21.90;69.50;;;;;;4936445;29;20027;-78
2022/08/13 06:36:29;;;;;;;0.65;0.43;;;22.00;69.70;;;;;;4953140;29;20032;-78
2022/08/13 06:39:01;;;;;;;0.10;0.10;;;22.10;69.50;;;;;;4952675;28;20476;-78
2022/08/13 06:41:28;;;;;;;0.00;0.00;;;22.20;69.10;;;;;;4952988;29;20258;-78
2022/08/13 06:43:56;;;;;;;0.00;0.00;;;22.30;69.00;;;;;;4935587;29;20584;-78
2022/08/13 06:46:27;;;;;;;0.00;0.00;;;22.40;69.90;;;;;;4952760;29;20409;-78
2022/08/13 06:49:01;;;;;;;0.10;0.03;;;22.50;68.50;;;;;;4935905;29;20034;-78
2022/08/13 06:51:27;;;;;;;0.10;0.10;;;22.60;68.30;;;;;;4935969;29;20845;-78
2022/08/13 06:53:54;;;;;;;4.10;0.43;;;22.70;67.80;;;;;;4952836;29;20118;-78
2022/08/13 06:56:26;;;;;;;0.20;0.17;;;22.70;67.80;;;;;;4935489;29;20046;-78
2022/08/13 06:58:58;;;;;;;0.13;0.13;;;22.80;68.10;;;;;;4952436;28;20027;-78
2022/08/13 07:01:26;;;;;;;0.10;0.10;;;22.90;67.30;;;;;;4936726;29;20494;-78
2022/08/13 07:03:54;;;;;;;0.13;0.08;;;23.00;67.00;;;;;;4952200;29;20032;-78
2022/08/13 07:06:28;;;;;;;0.38;0.28;;;23.00;67.20;;;;;;4953240;29;20023;-78
2022/08/13 07:09:01;;;;;;;0.32;0.22;;;23.00;67.10;;;;;;4952078;28;20035;-78
2022/08/13 07:11:29;;;;;;;0.25;0.10;;;23.00;67.30;;;;;;4952833;29;20114;-78
2022/08/13 07:14:02;;;;;;;0.03;0.03;;;23.00;67.20;;;;;;4935262;29;20039;-68
2022/08/13 07:16:30;;;;;;;0.03;0.03;;;23.20;67.30;;;;;;4935642;29;20556;-67
2022/08/13 07:18:59;;;;;;;0.00;0.00;;;23.20;66.90;;;;;;4935095;29;20034;-70
2022/08/13 07:21:27;;;;;;;0.10;0.10;;;23.40;67.40;;;;;;4952987;29;20032;-68
2022/08/13 07:23:54;;;;;;;0.22;0.15;;;23.50;67.80;;;;;;4934759;29;20047;-71
2022/08/13 07:26:24;;;;;;;0.00;0.00;;;23.70;67.20;;;;;;4933934;29;20035;-70
2022/08/13 07:28:51;;;;;;;0.10;0.10;;;23.70;66.00;;;;;;4935559;29;20043;-70
2022/08/13 07:31:30;;;;;;;0.00;0.00;;;23.80;66.90;;;;;;4937169;29;20500;-68
2022/08/13 07:33:59;;;;;;;0.45;0.30;;;23.90;66.20;;;;;;4936385;29;20039;-69
2022/08/13 07:36:31;;;;;;;2.00;0.32;;;24.00;66.20;;;;;;4936933;29;20395;-68
2022/08/13 07:39:00;;;;;;;0.00;0.00;;;24.10;66.30;;;;;;4919846;29;20127;-69
2022/08/13 07:41:27;;;;;;;0.30;0.13;;;24.10;66.10;;;;;;4919723;29;20063;-69
2022/08/13 07:43:53;;;;;;;0.73;0.32;;;24.30;65.60;;;;;;4919888;29;20039;-70
2022/08/13 07:46:19;;;;;;;0.00;0.00;;;24.30;65.40;;;;;;4919910;29;20031;-71
2022/08/13 07:48:51;;;;;;;0.08;0.08;;;24.40;65.40;;;;;;4936788;29;20114;-67
2022/08/13 07:51:21;;;;;;;2.10;0.63;;;24.60;65.00;;;;;;4905530;29;20583;-66
2022/08/13 07:53:50;;;;;;;0.00;0.00;;;24.60;64.70;;;;;;4936414;29;20038;-68
2022/08/13 07:56:28;;;;;;;0.40;0.38;;;24.60;64.40;;;;;;4929435;29;20114;-70
2022/08/13 07:59:01;;;;;;;0.00;0.00;;;24.60;64.70;;;;;;4938006;29;20081;-70
2022/08/13 08:01:29;;;;;;;0.05;0.05;;;24.80;64.70;;;;;;4956131;29;20085;-69
2022/08/13 08:04:02;;;;;;;0.05;0.05;;;24.80;64.10;;;;;;4938086;29;20123;-66
2022/08/13 08:06:29;;;;;;;0.10;0.10;;;24.90;64.40;;;;;;4954712;29;20058;-67
2022/08/13 08:08:57;;;;;;;0.13;0.13;;;25.10;63.90;;;;;;4954040;29;20038;-66
2022/08/13 08:14:10;;;;;;;0.10;0.10;;;25.10;63.50;;;;;;4940666;29;20039;-67
2022/08/13 08:16:42;;;;;;;0.10;0.10;;;25.20;63.50;;;;;;4955700;29;20023;-68
2022/08/13 08:19:08;;;;;;;0.00;0.00;;;25.30;63.70;;;;;;4955187;28;20059;-69
2022/08/13 08:21:35;;;;;;;0.00;0.00;;;25.40;63.20;;;;;;4955785;29;20062;-67
2022/08/13 08:24:03;;;;;;;0.00;0.00;;;25.40;63.20;;;;;;4955159;29;20114;-67
2022/08/13 08:26:33;;;;;;;0.10;0.10;;;25.50;63.20;;;;;;4937804;29;20452;-66
2022/08/13 08:29:05;;;;;;;0.63;0.47;;;25.60;63.10;;;;;;4938573;29;20027;-72
2022/08/13 08:31:33;;;;;;;0.00;0.00;;;25.80;63.10;;;;;;4955496;29;20496;-72
2022/08/13 08:34:01;;;;;;;0.00;0.00;;;25.90;62.90;;;;;;4937688;29;20487;-72
2022/08/13 08:36:28;;;;;;;0.00;0.00;;;26.00;62.30;;;;;;4955222;29;20035;-72
2022/08/13 08:44:32;;;;;;;0.00;0.00;;;26.30;61.80;;;;;;4940867;29;20067;-72
2022/08/13 08:47:00;;;;;;;0.00;0.00;;;26.30;61.60;;;;;;4938525;29;20043;-72
2022/08/13 08:49:28;;;;;;;0.40;0.30;;;26.30;61.60;;;;;;4937701;29;20106;-72
2022/08/13 08:51:54;;;;;;;1.00;0.68;;;26.40;62.20;;;;;;4938154;29;20180;-70
2022/08/13 08:54:22;;;;;;;0.35;0.35;;;26.50;63.10;;;;;;4937424;29;20106;-70
2022/08/13 08:56:56;;;;;;;12.95;2.35;;;26.60;62.40;;;;;;4954830;29;20440;-70
2022/08/13 08:59:32;;;;;;;1.23;0.32;;;26.80;61.60;;;;;;4954023;28;20035;-70
2022/08/13 09:01:59;;;;;;;0.17;0.17;;;26.80;60.80;;;;;;4954088;29;20027;-71
2022/08/13 09:04:28;;;;;;;0.13;0.13;;;26.90;61.20;;;;;;4954550;28;20031;-71
2022/08/13 09:06:55;;;;;;;0.90;0.55;;;26.90;60.70;;;;;;4954853;28;20042;-69
2022/08/13 09:09:21;;;;;;;0.35;0.35;;;26.80;60.50;;;;;;4952920;28;20062;-69
2022/08/13 09:11:52;;;;;;;3.25;2.00;;;26.90;60.60;;;;;;4954360;29;20269;-70
2022/08/13 09:14:20;;;;;;;2.75;0.43;;;27.10;61.40;;;;;;4952825;29;20031;-69
2022/08/13 09:16:46;;;;;;;0.47;0.32;;;27.20;60.10;;;;;;4937580;29;20443;-69
2022/08/13 09:19:12;;;;;;;0.38;0.32;;;27.30;59.60;;;;;;4936844;29;20027;-69
2022/08/13 09:21:46;;;;;;;0.00;0.00;;;27.40;59.70;;;;;;4937556;29;20054;-69
2022/08/13 09:24:15;;;;;;;0.00;0.00;;;27.50;59.50;;;;;;4936837;29;20023;-68
2022/08/13 09:26:47;;;;;;;0.20;0.10;;;27.60;59.40;;;;;;4954025;29;20027;-68
2022/08/13 09:29:18;;;;;;;1.27;0.47;;;27.60;58.60;;;;;;4953780;28;20027;-69
2022/08/13 09:31:50;;;;;;;0.47;0.20;;;27.60;58.50;;;;;;4954112;29;20028;-68
2022/08/13 09:34:17;;;;;;;0.10;0.10;;;27.70;58.90;;;;;;4936661;29;20032;-70
2022/08/13 09:36:45;;;;;;;0.03;0.03;;;27.80;58.90;;;;;;4953987;29;20027;-69
2022/08/13 09:39:32;;;;;;;0.20;0.20;;;27.90;58.10;;;;;;4953481;28;20487;-68
2022/08/13 09:42:01;;;;;;;0.28;0.00;;;27.90;58.60;;;;;;4937167;29;20051;-68
2022/08/13 09:44:28;;;;;;;0.10;0.10;;;28.00;58.20;;;;;;4937315;29;20035;-69
2022/08/13 09:46:54;;;;;;;0.52;0.40;;;28.10;58.10;;;;;;4937007;29;20044;-70
2022/08/13 09:49:20;;;;;;;0.30;0.20;;;28.20;57.50;;;;;;4953401;28;20026;-70
2022/08/13 09:51:46;;;;;;;0.10;0.10;;;28.40;57.10;;;;;;4954181;29;20556;-68
2022/08/13 09:54:12;;;;;;;0.20;0.20;;;28.50;55.30;;;;;;4953205;29;20372;-68
2022/08/13 09:56:39;;;;;;;0.00;0.00;;;28.70;55.40;;;;;;4946649;29;20484;-65
2022/08/13 09:59:06;;;;;;;0.90;0.45;;;29.00;55.40;;;;;;4919566;29;20177;-65
2022/08/13 10:01:34;;;;;;;0.00;0.00;;;29.00;55.00;;;;;;4952987;29;20518;-64
2022/08/13 10:03:59;;;;;;;0.00;0.00;;;29.20;55.00;;;;;;4935698;29;20035;-65
2022/08/13 10:06:28;;;;;;;0.00;0.00;;;29.30;54.90;;;;;;4953375;29;20400;-65
2022/08/13 10:08:55;;;;;;;0.10;0.10;;;28.80;54.70;;;;;;4952564;28;20050;-64
2022/08/13 10:11:24;;;;;;;0.10;0.03;;;28.50;55.60;;;;;;4953437;29;20106;-66
2022/08/13 10:13:50;;;;;;;0.05;0.05;;;28.80;55.10;;;;;;4936284;29;20403;-65
2022/08/13 10:16:15;;;;;;;0.17;0.03;;;29.30;54.90;;;;;;4953720;29;20031;-65
2022/08/13 10:18:42;;;;;;;0.10;0.10;;;29.60;54.20;;;;;;4952899;28;20031;-65
2022/08/13 10:21:08;;;;;;;0.13;0.13;;;29.30;53.90;;;;;;4953376;29;20046;-65
2022/08/13 10:23:35;;;;;;;0.03;0.00;;;29.20;54.30;;;;;;4953454;29;20043;-65
2022/08/13 10:26:01;;;;;;;0.05;0.05;;;29.00;55.00;;;;;;4952861;29;20039;-66
2022/08/13 10:28:34;;;;;;;0.17;0.17;;;29.10;54.40;;;;;;4953596;28;20038;-66
2022/08/13 10:31:08;;;;;;;0.10;0.10;;;29.20;55.40;;;;;;4952673;28;20031;-65
2022/08/13 10:33:37;;;;;;;0.00;0.00;;;29.70;54.80;;;;;;4953193;28;20027;-66
2022/08/13 10:36:06;;;;;;;0.65;0.65;;;30.10;53.70;;;;;;4951952;29;20443;-65
2022/08/13 10:38:33;;;;;;;0.00;0.00;;;29.90;52.60;;;;;;4953287;28;20031;-66
2022/08/13 10:41:07;;;;;;;0.25;0.17;;;30.10;53.30;;;;;;4952526;28;20430;-65
2022/08/13 10:43:39;;;;;;;0.13;0.00;;;30.20;52.10;;;;;;4951487;29;20111;-66
2022/08/13 10:46:11;;;;;;;0.03;0.03;;;30.20;52.30;;;;;;4952263;29;20043;-66
2022/08/13 10:48:38;;;;;;;0.32;0.20;;;30.30;52.10;;;;;;4952086;28;20031;-66
2022/08/13 10:51:04;;;;;;;0.10;0.10;;;30.50;52.00;;;;;;4953085;28;20031;-66
2022/08/13 10:56:16;;;;;;;1.35;0.55;;;30.70;51.30;;;;;;4952299;29;20043;-66
2022/08/13 10:58:42;;;;;;;0.32;0.05;;;30.60;51.60;;;;;;4952091;28;20028;-65
2022/08/13 11:01:10;;;;;;;1.08;0.88;;;30.50;51.50;;;;;;4955841;28;20094;-66
2022/08/13 11:03:37;;;;;;;0.43;0.25;;;30.40;51.40;;;;;;4941916;29;20027;-66
2022/08/13 11:06:06;;;;;;;0.60;0.52;;;30.60;51.70;;;;;;4942107;29;20055;-66
2022/08/13 11:08:38;;;;;;;0.08;0.08;;;30.70;51.40;;;;;;4959249;28;20074;-66
2022/08/13 11:11:09;;;;;;;0.28;0.28;;;31.00;51.10;;;;;;4958759;28;20031;-65
2022/08/13 11:13:36;;;;;;;0.68;0.32;;;31.40;50.70;;;;;;4942143;29;20057;-64
2022/08/13 11:16:43;;;;;;;0.80;0.70;;;31.20;50.50;;;;;;4941797;29;20110;-64
2022/08/13 11:18:52;;;;;;;1.23;0.45;;;31.40;51.00;;;;;;4944438;29;20039;-65
2022/08/13 11:21:18;;;;;;;0.25;0.20;;;31.70;51.20;;;;;;4959028;29;20038;-65
2022/08/13 11:23:44;;;;;;;0.25;0.15;;;31.90;50.30;;;;;;4958826;29;20027;-70
2022/08/13 11:26:11;;;;;;;0.00;0.00;;;31.90;50.10;;;;;;4914843;28;20039;-71
2022/08/13 11:28:36;;;;;;;0.00;0.00;;;32.10;50.50;;;;;;4958015;28;20260;-71
2022/08/13 11:31:02;;;;;;;0.28;0.20;;;32.20;49.70;;;;;;4958710;28;20031;-71
2022/08/13 11:33:28;;;;;;;0.00;0.00;;;32.10;50.00;;;;;;4958448;28;20077;-71
2022/08/13 11:35:53;;;;;;;0.25;0.20;;;32.30;49.90;;;;;;4957818;29;20035;-72
2022/08/13 11:38:22;;;;;;;0.00;0.00;;;32.00;49.30;;;;;;4958672;28;20031;-71
2022/08/13 11:40:54;;;;;;;0.57;0.17;;;31.50;49.50;;;;;;4957450;28;20070;-70
2022/08/13 11:43:26;;;;;;;0.25;0.25;;;31.20;50.60;;;;;;4957349;28;20403;-70
2022/08/13 11:45:52;;;;;;;0.63;0.35;;;31.00;50.80;;;;;;4957834;29;20082;-71
2022/08/13 11:48:20;;;;;;;0.40;0.40;;;31.20;50.80;;;;;;4958734;28;20491;-70
2022/08/13 11:50:47;;;;;;;0.20;0.15;;;31.40;50.80;;;;;;4957259;28;20031;-70
2022/08/13 11:53:13;;;;;;;0.30;0.22;;;31.50;50.60;;;;;;4957424;28;20035;-70
2022/08/13 11:55:39;;;;;;;0.45;0.32;;;31.50;50.20;;;;;;4957306;28;20031;-71
2022/08/13 11:58:08;;;;;;;0.05;0.05;;;31.40;50.10;;;;;;4958968;28;20542;-71
2022/08/13 12:00:38;;;;;;;0.45;0.40;;;31.40;50.50;;;;;;4956775;28;20023;-78
2022/08/13 12:03:07;;;;;;;0.28;0.10;;;31.40;50.70;;;;;;4957243;28;20034;-73
2022/08/13 12:05:33;;;;;;;0.55;0.47;;;31.30;50.80;;;;;;4947755;29;20043;-69
2022/08/13 12:07:59;;;;;;;0.30;0.10;;;31.20;51.30;;;;;;4922182;29;20031;-70
2022/08/13 12:10:26;;;;;;;0.17;0.17;;;31.60;50.30;;;;;;4949787;29;20039;-70
2022/08/13 12:12:52;;;;;;;0.10;0.10;;;31.80;50.70;;;;;;4937161;29;20035;-71
2022/08/13 12:15:18;;;;;;;0.20;0.17;;;32.00;50.70;;;;;;4942564;29;20042;-69
2022/08/13 12:17:47;;;;;;;0.03;0.03;;;32.50;51.00;;;;;;4953749;29;20110;-70
2022/08/13 12:20:23;;;;;;;0.05;0.05;;;32.90;50.10;;;;;;4954529;28;20027;-70
2022/08/13 12:22:51;;;;;;;0.22;0.20;;;33.10;49.30;;;;;;4945438;29;20109;-70
2022/08/13 12:25:17;;;;;;;1.65;0.77;;;32.90;48.40;;;;;;4954887;29;20027;-70
2022/08/13 12:27:43;;;;;;;0.45;0.40;;;32.80;49.40;;;;;;4953893;29;20484;-70
2022/08/13 12:30:09;;;;;;;0.00;0.00;;;33.40;49.20;;;;;;4949378;28;20031;-70
2022/08/13 12:32:35;;;;;;;0.30;0.25;;;33.70;47.70;;;;;;4955235;29;20058;-70
2022/08/13 12:35:01;;;;;;;0.10;0.10;;;34.20;47.60;;;;;;4954660;29;20074;-70
2022/08/13 12:37:27;;;;;;;0.00;0.00;;;33.40;47.80;;;;;;4955131;29;20118;-71
2022/08/13 12:39:55;;;;;;;0.00;0.00;;;33.60;47.60;;;;;;4954724;28;20069;-70
2022/08/13 12:42:22;;;;;;;0.30;0.30;;;33.20;47.90;;;;;;4954478;29;20027;-71
2022/08/13 12:44:48;;;;;;;0.00;0.00;;;33.00;47.80;;;;;;4938019;29;20023;-70
2022/08/13 12:47:14;;;;;;;0.00;0.00;;;33.00;48.30;;;;;;4954636;29;20121;-70
2022/08/13 12:49:40;;;;;;;0.00;0.00;;;32.20;48.70;;;;;;4954627;28;20110;-70
2022/08/13 12:52:06;;;;;;;1.10;0.20;;;32.10;48.80;;;;;;4954752;29;20078;-70
2022/08/13 12:54:31;;;;;;;0.00;0.00;;;32.10;49.60;;;;;;4937945;29;20041;-70
2022/08/13 12:56:57;;;;;;;0.08;0.08;;;32.50;49.40;;;;;;4954127;29;20027;-70
2022/08/13 12:59:23;;;;;;;0.00;0.00;;;32.70;49.20;;;;;;4954259;28;20032;-70
2022/08/13 13:01:52;;;;;;;0.13;0.13;;;32.90;49.10;;;;;;4954554;29;20034;-71
2022/08/13 13:04:22;;;;;;;0.00;0.00;;;32.80;48.40;;;;;;4954499;29;20027;-71
2022/08/13 13:06:50;;;;;;;1.13;0.17;;;32.50;49.00;;;;;;4955127;29;20479;-70
2022/08/13 13:09:16;;;;;;;0.20;0.13;;;32.10;48.90;;;;;;4937030;29;20039;-70
2022/08/13 13:11:42;;;;;;;2.10;0.50;;;32.30;48.50;;;;;;4936824;29;20043;-70
2022/08/13 13:14:08;;;;;;;0.32;0.17;;;32.50;48.60;;;;;;4954319;29;20043;-70
2022/08/13 13:16:35;;;;;;;2.45;1.00;;;32.70;47.80;;;;;;4954022;29;20042;-70
2022/08/13 13:19:02;;;;;;;0.38;0.38;;;33.20;47.90;;;;;;4954242;28;20019;-69